Time;durP1;ratioP1;P1;durP2;ratioP2;P2;SDS_P1;SDS_P2;PMS_P1;PMS_P2;Temp;Humidity;BMP_temperature;BMP_pressure;BME280_temperature;BME280_humidity;BME280_pressure;Samples;Min_cycle;Max_cycle;Signal;HPM_P1;HPM_P2
2022/04/11 00:01:04;;;;;;;7.10;2.03;;;11.20;99.90;;;;;;4988849;28;20204;-65
2022/04/11 00:03:31;;;;;;;8.10;1.90;;;11.20;99.90;;;;;;4988718;28;20284;-65
2022/04/11 00:05:58;;;;;;;7.90;2.17;;;11.20;99.90;;;;;;4973138;28;20192;-65
2022/04/11 00:08:24;;;;;;;4.90;1.53;;;11.20;99.90;;;;;;4979657;28;20242;-65
2022/04/11 00:10:50;;;;;;;7.70;2.10;;;11.20;99.90;;;;;;4971389;28;20670;-66
2022/04/11 00:13:16;;;;;;;9.70;1.80;;;11.20;99.90;;;;;;4984218;28;20300;-65
2022/04/11 00:15:43;;;;;;;4.70;1.73;;;11.30;99.90;;;;;;4991086;28;20213;-65
2022/04/11 00:18:10;;;;;;;4.80;1.50;;;11.30;99.90;;;;;;4990190;28;20287;-65
2022/04/11 00:20:36;;;;;;;10.13;1.40;;;11.20;99.90;;;;;;4986825;28;20206;-65
2022/04/11 00:23:06;;;;;;;5.97;1.87;;;11.10;99.90;;;;;;4983331;28;20313;-65
2022/04/11 00:25:34;;;;;;;5.73;1.90;;;11.10;99.90;;;;;;4985347;28;20325;-66
2022/04/11 00:28:01;;;;;;;5.23;1.60;;;11.10;99.90;;;;;;4990071;28;20221;-65
2022/04/11 00:30:27;;;;;;;6.90;2.27;;;11.10;99.90;;;;;;4988982;28;20182;-66
2022/04/11 00:32:53;;;;;;;7.70;2.43;;;11.10;99.90;;;;;;4981700;28;20240;-65
2022/04/11 00:35:20;;;;;;;10.07;2.03;;;11.10;99.90;;;;;;4974134;28;20681;-65
2022/04/11 00:37:46;;;;;;;3.50;1.30;;;11.20;99.90;;;;;;4989591;28;20215;-65
2022/04/11 00:40:13;;;;;;;10.00;2.07;;;11.20;99.90;;;;;;4968296;28;20190;-65
2022/04/11 00:42:39;;;;;;;13.57;1.87;;;11.20;99.90;;;;;;4973202;28;20209;-65
2022/04/11 00:45:07;;;;;;;7.77;1.60;;;11.20;99.90;;;;;;4987089;28;20201;-65
2022/04/11 00:47:33;;;;;;;6.57;1.90;;;11.20;99.90;;;;;;4970049;28;20833;-65
2022/04/11 00:50:07;;;;;;;5.30;1.87;;;11.20;99.90;;;;;;4970676;28;20586;-65
2022/04/11 00:52:42;;;;;;;6.97;1.67;;;11.10;99.90;;;;;;4969340;28;20221;-65
2022/04/11 00:55:12;;;;;;;6.93;1.90;;;11.10;99.90;;;;;;4973489;28;20340;-65
2022/04/11 00:57:39;;;;;;;6.37;1.80;;;11.10;99.90;;;;;;4987006;28;20197;-65
2022/04/11 01:00:08;;;;;;;7.23;1.50;;;11.10;99.90;;;;;;4981130;28;20194;-65
2022/04/11 01:02:35;;;;;;;9.00;1.87;;;11.00;99.90;;;;;;4989512;28;20637;-65
2022/04/11 01:05:05;;;;;;;8.57;1.50;;;11.00;99.90;;;;;;4984025;28;20182;-65
2022/04/11 01:07:31;;;;;;;4.70;1.60;;;11.00;99.90;;;;;;4972574;28;20212;-66
2022/04/11 01:09:58;;;;;;;5.87;2.20;;;10.90;99.90;;;;;;4977941;28;20225;-65
2022/04/11 01:12:26;;;;;;;7.37;1.97;;;11.00;99.90;;;;;;4985623;28;20240;-65
2022/04/11 01:14:52;;;;;;;10.57;2.20;;;10.90;99.90;;;;;;4970475;28;20198;-65
2022/04/11 01:17:18;;;;;;;6.10;1.93;;;11.00;99.90;;;;;;4968448;28;20312;-65
2022/04/11 01:19:45;;;;;;;6.53;1.77;;;11.00;99.90;;;;;;4987375;28;20288;-65
2022/04/11 01:22:11;;;;;;;7.10;1.80;;;11.00;99.90;;;;;;4982231;28;20281;-65
2022/04/11 01:24:38;;;;;;;6.57;1.70;;;11.10;99.90;;;;;;4970948;28;20642;-65
2022/04/11 01:27:04;;;;;;;5.27;1.77;;;11.10;99.90;;;;;;4969893;28;20190;-64
2022/04/11 01:29:32;;;;;;;7.30;1.87;;;11.10;99.90;;;;;;4993682;28;20681;-65
2022/04/11 01:31:58;;;;;;;6.80;2.00;;;11.10;99.90;;;;;;4984881;28;20185;-64
2022/04/11 01:34:24;;;;;;;7.73;1.57;;;11.20;99.90;;;;;;4989270;28;20204;-64
2022/04/11 01:36:50;;;;;;;5.73;1.40;;;11.30;99.90;;;;;;4987028;28;20595;-65
2022/04/11 01:39:17;;;;;;;5.37;1.43;;;11.40;99.90;;;;;;4955542;28;20244;-65
2022/04/11 01:41:43;;;;;;;7.63;1.37;;;11.40;99.90;;;;;;4970022;28;20204;-65
2022/04/11 01:44:09;;;;;;;6.10;1.30;;;11.50;99.90;;;;;;4969728;28;20196;-65
2022/04/11 01:46:35;;;;;;;4.93;1.37;;;11.50;99.90;;;;;;4969756;28;20197;-65
2022/04/11 01:49:01;;;;;;;6.23;1.40;;;11.60;99.90;;;;;;4976921;28;20209;-64
2022/04/11 01:51:28;;;;;;;7.13;1.70;;;11.60;99.90;;;;;;4990258;28;20216;-65
2022/04/11 01:53:54;;;;;;;6.73;1.70;;;11.70;99.90;;;;;;4993405;28;20284;-65
2022/04/11 01:56:20;;;;;;;11.73;2.20;;;11.70;99.90;;;;;;4976980;28;20264;-66
2022/04/11 01:58:46;;;;;;;7.40;1.90;;;11.80;99.90;;;;;;4992701;28;20251;-65
2022/04/11 02:01:17;;;;;;;10.17;1.83;;;11.80;99.90;;;;;;4979131;28;20880;-65
2022/04/11 02:03:45;;;;;;;6.20;1.80;;;11.80;99.90;;;;;;4976121;28;20186;-64
2022/04/11 02:06:11;;;;;;;4.50;1.67;;;11.90;99.90;;;;;;5006578;28;20193;-65
2022/04/11 02:08:37;;;;;;;10.63;1.97;;;11.90;99.90;;;;;;4985714;28;20245;-64
2022/04/11 02:11:04;;;;;;;13.10;2.37;;;11.90;99.90;;;;;;4979260;28;20185;-65
2022/04/11 02:13:30;;;;;;;8.40;2.17;;;11.90;99.90;;;;;;4987379;28;20194;-65
2022/04/11 02:15:56;;;;;;;11.63;2.40;;;12.00;99.90;;;;;;4976325;28;20268;-65
2022/04/11 02:18:22;;;;;;;11.20;2.60;;;12.00;99.90;;;;;;4975115;28;20309;-65
2022/04/11 02:20:48;;;;;;;14.53;2.53;;;12.00;99.90;;;;;;4994143;28;21052;-65
2022/04/11 02:23:15;;;;;;;7.43;1.83;;;12.00;99.90;;;;;;4985787;28;20200;-65
2022/04/11 02:25:41;;;;;;;10.30;3.20;;;12.00;99.90;;;;;;4974715;28;20289;-65
2022/04/11 02:28:07;;;;;;;8.37;2.10;;;12.00;99.90;;;;;;4975300;28;20230;-66
2022/04/11 02:30:34;;;;;;;6.67;1.93;;;12.10;99.90;;;;;;4991654;28;20193;-65
2022/04/11 02:33:00;;;;;;;5.53;2.23;;;12.10;99.90;;;;;;4981371;28;20193;-64
2022/04/11 02:35:27;;;;;;;5.87;1.73;;;12.10;99.90;;;;;;5001613;28;20190;-64
2022/04/11 02:37:53;;;;;;;6.90;1.97;;;12.10;99.90;;;;;;4995487;28;20612;-65
2022/04/11 02:40:20;;;;;;;8.27;1.60;;;12.00;99.90;;;;;;4993915;28;20201;-65
2022/04/11 02:42:47;;;;;;;5.27;1.63;;;12.00;99.90;;;;;;4991356;28;20197;-65
2022/04/11 02:45:15;;;;;;;4.97;1.33;;;12.10;99.90;;;;;;4994326;28;20205;-65
2022/04/11 02:47:42;;;;;;;7.10;1.30;;;12.10;99.90;;;;;;4993392;28;20192;-65
2022/04/11 02:50:10;;;;;;;3.70;1.30;;;12.00;99.90;;;;;;4986645;28;20187;-65
2022/04/11 02:52:37;;;;;;;4.77;1.50;;;12.10;99.90;;;;;;4989470;28;20602;-66
2022/04/11 02:55:04;;;;;;;6.37;1.50;;;12.00;99.90;;;;;;4992522;28;20235;-64
2022/04/11 02:57:30;;;;;;;4.13;1.37;;;12.00;99.90;;;;;;4992510;28;20186;-65
2022/04/11 02:59:57;;;;;;;2.83;1.33;;;12.00;99.90;;;;;;4994735;28;20189;-65
2022/04/11 03:02:23;;;;;;;4.80;1.20;;;11.90;99.90;;;;;;4993180;28;20283;-65
2022/04/11 03:04:50;;;;;;;6.43;1.37;;;11.90;99.90;;;;;;4990740;28;20196;-64
2022/04/11 03:07:18;;;;;;;5.47;1.40;;;11.90;99.90;;;;;;4985226;28;20252;-64
2022/04/11 03:09:45;;;;;;;5.60;1.40;;;11.80;99.90;;;;;;4988055;28;20324;-64
2022/04/11 03:12:11;;;;;;;8.10;1.43;;;11.90;99.90;;;;;;4985103;28;20193;-65
2022/04/11 03:14:37;;;;;;;6.27;1.83;;;11.90;99.90;;;;;;4978155;28;20669;-64
2022/04/11 03:17:04;;;;;;;3.57;1.40;;;11.90;99.90;;;;;;4991496;28;20251;-65
2022/04/11 03:19:30;;;;;;;4.20;1.20;;;12.00;99.90;;;;;;4989632;28;20209;-65
2022/04/11 03:21:56;;;;;;;7.60;1.93;;;11.90;99.90;;;;;;4970564;28;20209;-65
2022/04/11 03:24:23;;;;;;;4.23;1.37;;;12.00;99.90;;;;;;4995166;28;20577;-64
2022/04/11 03:26:49;;;;;;;4.90;1.33;;;12.00;99.90;;;;;;4964296;28;20193;-65
2022/04/11 03:29:15;;;;;;;8.73;1.50;;;12.00;99.90;;;;;;5001104;28;20267;-65
2022/04/11 03:31:41;;;;;;;4.07;1.40;;;12.00;99.90;;;;;;4991109;28;20232;-65
2022/04/11 03:34:08;;;;;;;5.50;1.40;;;12.00;99.90;;;;;;4991119;28;20220;-65
2022/04/11 03:36:34;;;;;;;3.50;1.40;;;12.00;99.90;;;;;;4989201;28;20201;-64
2022/04/11 03:39:00;;;;;;;6.57;1.47;;;11.90;99.90;;;;;;4977883;28;20198;-65
2022/04/11 03:41:26;;;;;;;5.57;1.40;;;11.90;99.90;;;;;;4981858;28;20197;-65
2022/04/11 03:43:53;;;;;;;5.13;1.23;;;12.00;99.90;;;;;;4990910;28;20182;-64
2022/04/11 03:46:19;;;;;;;5.70;1.73;;;12.00;99.90;;;;;;4977762;28;20835;-65
2022/04/11 03:48:45;;;;;;;6.70;1.70;;;12.00;99.90;;;;;;4954073;28;20217;-65
2022/04/11 03:51:11;;;;;;;2.97;1.30;;;12.10;99.90;;;;;;4983733;28;20190;-64
2022/04/11 03:53:38;;;;;;;3.77;1.43;;;12.20;99.90;;;;;;4982583;28;20574;-65
2022/04/11 03:56:04;;;;;;;5.50;1.40;;;12.40;99.90;;;;;;4988168;28;20594;-64
2022/04/11 03:58:31;;;;;;;4.63;1.20;;;12.50;99.90;;;;;;4988451;28;20205;-65
2022/04/11 04:00:57;;;;;;;2.67;1.20;;;12.50;99.90;;;;;;4984137;28;20209;-64
2022/04/11 04:03:23;;;;;;;4.70;1.30;;;12.50;99.90;;;;;;4990867;28;20194;-65
2022/04/11 04:05:50;;;;;;;3.93;1.20;;;12.60;99.90;;;;;;4990005;28;20657;-64
2022/04/11 04:08:17;;;;;;;7.10;1.10;;;12.70;99.90;;;;;;4989833;28;21062;-65
2022/04/11 04:10:44;;;;;;;5.60;1.20;;;12.60;99.90;;;;;;4972790;28;20197;-64
2022/04/11 04:13:11;;;;;;;2.37;0.80;;;12.70;99.90;;;;;;4985198;28;20193;-64
2022/04/11 04:15:37;;;;;;;3.33;1.20;;;12.70;99.90;;;;;;4961875;28;20209;-64
2022/04/11 04:18:04;;;;;;;9.93;1.23;;;13.00;99.90;;;;;;4988574;28;20202;-65
2022/04/11 04:20:31;;;;;;;4.90;1.30;;;13.00;99.90;;;;;;4989678;28;20772;-64
2022/04/11 04:22:57;;;;;;;2.23;0.93;;;13.00;99.90;;;;;;4970389;28;20217;-66
2022/04/11 04:25:24;;;;;;;3.20;1.30;;;13.10;99.90;;;;;;4971359;28;20225;-65
2022/04/11 04:27:50;;;;;;;4.87;1.30;;;13.10;99.90;;;;;;4986731;28;20697;-65
2022/04/11 04:30:16;;;;;;;5.30;1.20;;;13.10;99.90;;;;;;4988141;28;20212;-65
2022/04/11 04:32:43;;;;;;;2.40;1.07;;;13.10;99.90;;;;;;4990384;28;20186;-65
2022/04/11 04:35:10;;;;;;;2.53;1.20;;;13.10;99.90;;;;;;4987247;28;20276;-64
2022/04/11 04:37:36;;;;;;;4.43;1.30;;;13.10;99.90;;;;;;4972987;28;20310;-65
2022/04/11 04:40:04;;;;;;;2.63;1.10;;;13.10;99.90;;;;;;4971420;28;20194;-64
2022/04/11 04:42:30;;;;;;;3.90;1.37;;;13.10;99.90;;;;;;4971395;28;20281;-65
2022/04/11 04:44:56;;;;;;;2.63;1.20;;;13.10;99.90;;;;;;4953133;28;20266;-65
2022/04/11 04:47:25;;;;;;;4.50;1.43;;;13.20;99.90;;;;;;4970660;28;20186;-65
2022/04/11 04:49:52;;;;;;;2.37;1.10;;;13.30;99.90;;;;;;4990214;28;20217;-65
2022/04/11 04:52:19;;;;;;;5.33;1.40;;;13.40;99.90;;;;;;4988324;28;20189;-65
2022/04/11 04:54:45;;;;;;;2.83;1.20;;;13.40;99.90;;;;;;4982427;28;20632;-65
2022/04/11 04:57:11;;;;;;;3.87;1.40;;;13.50;99.90;;;;;;5003444;28;20186;-64
2022/04/11 04:59:38;;;;;;;3.73;1.37;;;13.50;99.90;;;;;;4987436;28;20543;-64
2022/04/11 05:02:04;;;;;;;2.87;1.10;;;13.50;99.90;;;;;;4971169;28;20669;-65
2022/04/11 05:04:30;;;;;;;5.27;1.43;;;13.60;99.90;;;;;;4971069;28;20178;-64
2022/04/11 05:06:58;;;;;;;1.97;1.00;;;13.70;99.90;;;;;;4987314;28;20339;-65
2022/04/11 05:09:24;;;;;;;5.07;1.20;;;13.70;99.90;;;;;;4978922;28;20225;-64
2022/04/11 05:11:50;;;;;;;5.30;1.30;;;13.80;99.90;;;;;;4971123;28;20288;-66
2022/04/11 05:14:17;;;;;;;5.23;1.50;;;13.80;99.90;;;;;;4986500;28;20606;-65
2022/04/11 05:16:43;;;;;;;3.70;1.40;;;13.80;99.90;;;;;;4987455;28;20315;-65
2022/04/11 05:19:10;;;;;;;4.87;1.43;;;13.90;99.90;;;;;;4969839;28;20242;-65
2022/04/11 05:21:36;;;;;;;6.20;1.43;;;14.00;99.90;;;;;;4968398;28;20204;-64
2022/04/11 05:24:03;;;;;;;3.17;1.33;;;14.00;99.90;;;;;;4987986;28;20197;-65
2022/04/11 05:26:29;;;;;;;3.13;1.20;;;14.10;99.90;;;;;;4988625;28;20686;-65
2022/04/11 05:28:55;;;;;;;3.90;1.20;;;14.40;99.90;;;;;;5002896;28;20303;-64
2022/04/11 05:31:21;;;;;;;5.93;1.40;;;14.40;99.90;;;;;;4987820;28;20234;-65
2022/04/11 05:33:48;;;;;;;3.37;1.30;;;14.40;99.90;;;;;;4987085;28;20232;-64
2022/04/11 05:36:17;;;;;;;5.63;1.37;;;14.40;99.90;;;;;;4989204;28;20188;-65
2022/04/11 05:38:47;;;;;;;5.53;1.40;;;14.40;99.90;;;;;;4989246;28;20199;-64
2022/04/11 05:41:14;;;;;;;4.33;1.63;;;14.50;99.90;;;;;;4989951;28;20220;-64
2022/04/11 05:43:41;;;;;;;6.10;1.33;;;14.50;99.90;;;;;;4997856;28;20548;-64
2022/04/11 05:46:08;;;;;;;13.30;1.87;;;14.50;99.90;;;;;;4988451;28;20223;-65
2022/04/11 05:48:35;;;;;;;4.10;1.57;;;14.60;99.90;;;;;;4985464;28;20623;-65
2022/04/11 05:51:01;;;;;;;4.93;1.47;;;14.70;99.90;;;;;;4983114;28;20204;-64
2022/04/11 05:53:28;;;;;;;10.03;1.60;;;14.70;99.90;;;;;;4987813;28;20185;-64
2022/04/11 05:55:54;;;;;;;5.63;1.80;;;14.90;99.90;;;;;;4987573;28;20193;-65
2022/04/11 05:58:20;;;;;;;9.33;2.00;;;14.90;99.90;;;;;;4986774;28;20210;-65
2022/04/11 06:00:47;;;;;;;6.53;2.17;;;15.00;99.90;;;;;;4988304;28;20322;-65
2022/04/11 06:03:13;;;;;;;8.83;2.10;;;15.10;99.90;;;;;;4985728;28;20206;-65
2022/04/11 06:05:40;;;;;;;7.17;2.17;;;15.20;99.90;;;;;;4979514;28;20263;-64
2022/04/11 06:08:07;;;;;;;10.00;2.47;;;15.20;99.90;;;;;;4987562;28;20214;-65
2022/04/11 06:10:33;;;;;;;8.77;2.00;;;15.30;99.90;;;;;;4989575;28;20186;-64
2022/04/11 06:13:00;;;;;;;9.87;2.17;;;15.30;99.90;;;;;;4988530;28;20546;-64
2022/04/11 06:15:26;;;;;;;12.10;2.60;;;15.30;99.90;;;;;;4988920;28;20209;-64
2022/04/11 06:17:52;;;;;;;7.63;2.30;;;15.30;99.90;;;;;;4980046;28;20240;-64
2022/04/11 06:20:19;;;;;;;5.93;2.20;;;15.40;99.90;;;;;;4974166;28;20189;-65
2022/04/11 06:22:46;;;;;;;11.77;2.67;;;15.40;99.90;;;;;;4987784;28;20193;-66
2022/04/11 06:25:13;;;;;;;9.40;2.33;;;15.50;99.90;;;;;;4998668;28;20190;-64
2022/04/11 06:27:39;;;;;;;6.90;2.23;;;15.50;99.90;;;;;;4972851;28;20197;-66
2022/04/11 06:30:07;;;;;;;8.33;2.53;;;15.50;99.90;;;;;;4970987;28;20229;-66
2022/04/11 06:32:34;;;;;;;8.47;2.07;;;15.50;99.90;;;;;;4988843;28;20194;-68
2022/04/11 06:35:01;;;;;;;7.73;2.30;;;15.60;99.90;;;;;;4987287;28;20224;-64
2022/04/11 06:37:27;;;;;;;12.27;2.43;;;15.70;99.90;;;;;;4987169;28;20181;-64
2022/04/11 06:39:54;;;;;;;9.30;2.17;;;15.70;99.90;;;;;;4992224;28;20263;-65
2022/04/11 06:42:22;;;;;;;8.00;2.23;;;15.80;99.90;;;;;;4987944;28;20218;-65
2022/04/11 06:44:48;;;;;;;7.57;2.43;;;15.90;99.90;;;;;;4985887;28;20227;-65
2022/04/11 06:47:14;;;;;;;8.70;2.27;;;16.00;99.90;;;;;;4980294;28;20247;-66
2022/04/11 06:49:41;;;;;;;10.07;2.40;;;16.10;99.90;;;;;;4989546;28;20232;-66
2022/04/11 06:52:07;;;;;;;7.63;2.07;;;16.20;99.90;;;;;;4989201;28;20196;-66
2022/04/11 06:54:37;;;;;;;10.37;2.63;;;16.20;99.90;;;;;;4991211;28;20203;-67
2022/04/11 06:57:03;;;;;;;8.77;2.30;;;16.20;99.90;;;;;;4985677;28;20375;-65
2022/04/11 06:59:30;;;;;;;10.30;2.20;;;16.30;99.90;;;;;;4990015;28;20197;-65
2022/04/11 07:01:56;;;;;;;8.63;2.57;;;16.30;99.90;;;;;;4989714;28;20206;-66
2022/04/11 07:04:23;;;;;;;8.03;2.47;;;16.50;99.90;;;;;;4988763;28;20225;-65
2022/04/11 07:06:49;;;;;;;8.93;2.40;;;16.60;99.90;;;;;;4989489;28;20276;-64
2022/04/11 07:09:16;;;;;;;8.90;2.27;;;16.70;99.90;;;;;;4989396;28;20287;-65
2022/04/11 07:11:42;;;;;;;8.47;2.23;;;16.70;99.90;;;;;;4990571;28;20190;-65
2022/04/11 07:14:09;;;;;;;10.37;2.27;;;16.80;99.90;;;;;;4982895;28;20193;-67
2022/04/11 07:16:35;;;;;;;14.83;2.90;;;16.90;99.90;;;;;;4988995;28;20217;-66
2022/04/11 07:19:01;;;;;;;8.53;2.57;;;16.90;99.90;;;;;;4989651;28;20213;-66
2022/04/11 07:21:29;;;;;;;10.60;2.20;;;16.90;99.90;;;;;;4990169;28;20212;-66
2022/04/11 07:23:56;;;;;;;8.57;2.40;;;16.90;99.90;;;;;;4991223;28;20197;-66
2022/04/11 07:26:22;;;;;;;10.47;2.77;;;16.90;99.90;;;;;;4982652;28;20802;-66
2022/04/11 07:28:50;;;;;;;9.83;2.53;;;16.90;99.90;;;;;;4988855;28;20698;-67
2022/04/11 07:31:16;;;;;;;7.73;2.03;;;16.90;99.90;;;;;;4987994;28;20671;-67
2022/04/11 07:33:42;;;;;;;8.43;1.87;;;17.10;99.90;;;;;;4986853;28;20261;-66
2022/04/11 07:36:09;;;;;;;8.70;2.23;;;17.20;99.90;;;;;;4989995;28;20422;-67
2022/04/11 07:38:36;;;;;;;5.77;1.50;;;17.20;99.90;;;;;;4988868;28;20204;-66
2022/04/11 07:41:02;;;;;;;6.10;1.83;;;17.20;99.90;;;;;;4991351;28;20276;-66
2022/04/11 07:43:28;;;;;;;9.70;3.03;;;17.30;99.90;;;;;;4988956;28;20205;-66
2022/04/11 07:45:54;;;;;;;8.03;2.00;;;17.30;99.90;;;;;;4990874;28;20280;-67
2022/04/11 07:48:21;;;;;;;6.63;2.90;;;17.40;99.90;;;;;;4990479;28;20213;-66
2022/04/11 07:50:48;;;;;;;9.50;2.17;;;17.50;99.90;;;;;;4983375;28;20245;-67
2022/04/11 07:53:14;;;;;;;8.30;1.80;;;17.70;99.90;;;;;;4990391;28;20197;-64
2022/04/11 07:55:40;;;;;;;10.43;2.60;;;17.70;99.90;;;;;;4991233;28;20543;-64
2022/04/11 07:58:07;;;;;;;7.20;2.23;;;17.70;99.90;;;;;;4993206;28;20267;-65
2022/04/11 08:00:34;;;;;;;6.97;2.10;;;17.60;99.90;;;;;;4985275;28;20216;-64
2022/04/11 08:03:00;;;;;;;11.53;1.87;;;17.70;99.90;;;;;;4984377;28;20205;-66
2022/04/11 08:05:27;;;;;;;9.87;2.40;;;17.80;99.90;;;;;;5001775;28;20606;-64
2022/04/11 08:07:53;;;;;;;10.60;2.60;;;17.80;99.90;;;;;;5002119;28;20220;-64
2022/04/11 08:10:21;;;;;;;9.13;2.13;;;17.80;99.90;;;;;;4990212;28;20202;-64
2022/04/11 08:13:00;;;;;;;9.80;2.40;;;17.80;99.90;;;;;;4989919;28;20275;-66
2022/04/11 08:15:29;;;;;;;8.40;2.17;;;17.90;99.90;;;;;;4984016;28;20214;-64
2022/04/11 08:17:57;;;;;;;7.03;1.90;;;17.80;99.90;;;;;;4986787;28;20201;-65
2022/04/11 08:20:25;;;;;;;12.67;2.70;;;17.90;99.90;;;;;;4974558;28;20190;-65
2022/04/11 08:22:51;;;;;;;10.27;2.40;;;17.90;99.90;;;;;;4992764;28;20197;-64
2022/04/11 08:25:18;;;;;;;12.20;2.43;;;17.90;99.90;;;;;;4991724;28;20626;-65
2022/04/11 08:27:45;;;;;;;10.17;2.13;;;17.90;99.90;;;;;;4987801;28;20198;-65
2022/04/11 08:30:13;;;;;;;7.77;2.33;;;18.00;99.90;;;;;;5001538;28;20192;-64
2022/04/11 08:32:49;;;;;;;6.80;2.23;;;18.20;99.90;;;;;;4991100;28;20197;-65
2022/04/11 08:35:18;;;;;;;9.70;2.60;;;18.20;99.90;;;;;;4987311;28;20233;-64
2022/04/11 08:37:45;;;;;;;10.47;2.13;;;18.20;99.90;;;;;;4989453;28;20217;-63
2022/04/11 08:40:18;;;;;;;8.07;2.13;;;18.20;99.90;;;;;;4979216;28;20198;-64
2022/04/11 08:42:48;;;;;;;11.33;2.30;;;18.30;99.90;;;;;;4983747;28;20189;-64
2022/04/11 08:45:17;;;;;;;7.97;2.63;;;18.20;99.90;;;;;;4987847;28;20664;-65
2022/04/11 08:47:44;;;;;;;11.27;2.87;;;18.20;99.90;;;;;;4985740;28;20554;-64
2022/04/11 08:50:13;;;;;;;11.93;2.43;;;18.20;99.90;;;;;;4988333;28;20233;-65
2022/04/11 08:52:40;;;;;;;14.10;2.80;;;18.40;99.90;;;;;;4987091;28;20650;-65
2022/04/11 08:55:08;;;;;;;11.97;2.70;;;18.60;99.90;;;;;;4992648;28;20291;-65
2022/04/11 08:57:39;;;;;;;10.37;2.80;;;18.70;99.90;;;;;;4987174;28;20826;-65
2022/04/11 09:00:20;;;;;;;12.47;2.90;;;18.70;99.90;;;;;;5004505;28;20224;-65
2022/04/11 09:02:47;;;;;;;12.87;2.73;;;18.80;99.90;;;;;;4985608;28;20849;-64
2022/04/11 09:05:22;;;;;;;6.87;2.30;;;19.00;99.90;;;;;;4992923;28;20650;-64
2022/04/11 09:07:58;;;;;;;10.53;2.77;;;19.10;99.90;;;;;;4985953;28;20184;-63
2022/04/11 09:10:36;;;;;;;13.93;2.90;;;19.10;99.90;;;;;;4987463;28;20185;-67
2022/04/11 09:13:06;;;;;;;21.27;3.20;;;19.20;99.90;;;;;;4988086;28;20211;-66
2022/04/11 09:15:47;;;;;;;12.50;2.50;;;19.20;99.90;;;;;;4971862;28;20638;-66
2022/04/11 09:18:14;;;;;;;14.00;3.13;;;19.10;99.90;;;;;;4981908;28;20664;-67
2022/04/11 09:20:44;;;;;;;11.40;3.00;;;18.90;99.90;;;;;;4985419;28;20204;-66
2022/04/11 09:23:23;;;;;;;11.47;2.70;;;19.30;99.90;;;;;;4981939;28;20587;-66
2022/04/11 09:25:49;;;;;;;17.53;3.17;;;19.50;99.90;;;;;;4980772;28;20200;-66
2022/04/11 09:28:16;;;;;;;13.53;3.20;;;19.50;99.90;;;;;;4983577;28;20245;-67
2022/04/11 09:30:43;;;;;;;11.00;2.93;;;19.70;99.90;;;;;;4981849;28;20260;-66
2022/04/11 09:33:11;;;;;;;13.63;3.30;;;19.80;99.90;;;;;;4983700;28;20190;-65
2022/04/11 09:35:48;;;;;;;15.13;3.67;;;19.80;99.90;;;;;;4985729;28;20215;-66
2022/04/11 09:38:22;;;;;;;15.60;3.33;;;19.60;99.90;;;;;;4983412;28;20228;-66
2022/04/11 09:40:56;;;;;;;17.70;3.60;;;19.40;99.90;;;;;;4986519;28;20280;-66
2022/04/11 09:43:32;;;;;;;16.67;4.37;;;19.60;99.90;;;;;;4995989;28;20615;-65
2022/04/11 09:46:04;;;;;;;16.07;3.50;;;19.50;99.90;;;;;;4989023;28;20203;-65
2022/04/11 09:48:37;;;;;;;18.07;3.73;;;19.40;99.90;;;;;;4996457;28;20310;-65
2022/04/11 09:51:16;;;;;;;17.00;3.70;;;19.60;99.90;;;;;;4997611;28;20842;-65
2022/04/11 09:53:43;;;;;;;16.90;4.07;;;19.90;99.90;;;;;;4984384;28;20198;-65
2022/04/11 09:56:10;;;;;;;16.20;3.60;;;20.30;99.90;;;;;;4988938;28;20195;-66
2022/04/11 09:58:41;;;;;;;17.70;3.97;;;20.50;99.90;;;;;;4980244;28;20197;-65
2022/04/11 10:01:08;;;;;;;18.37;4.13;;;20.90;99.90;;;;;;4980927;28;20197;-66
2022/04/11 10:03:36;;;;;;;16.20;3.60;;;20.90;99.90;;;;;;4982607;28;20193;-67
2022/04/11 10:06:05;;;;;;;14.40;3.80;;;21.10;99.90;;;;;;4986081;28;20724;-66
2022/04/11 10:08:35;;;;;;;19.23;4.30;;;21.10;99.90;;;;;;4986734;28;20213;-66
2022/04/11 10:11:04;;;;;;;19.93;3.87;;;20.90;99.90;;;;;;4986431;28;20193;-66
2022/04/11 10:13:33;;;;;;;19.60;3.93;;;20.90;99.90;;;;;;4990555;28;20888;-66
2022/04/11 10:16:00;;;;;;;22.40;4.03;;;20.60;99.90;;;;;;4987571;28;20863;-66
2022/04/11 10:18:28;;;;;;;17.83;3.60;;;21.20;99.90;;;;;;4986616;28;20213;-66
2022/04/11 10:21:15;;;;;;;13.23;3.80;;;21.30;99.90;;;;;;4975806;28;20193;-67
2022/04/11 10:23:55;;;;;;;15.70;3.70;;;21.00;99.90;;;;;;4988698;28;20538;-67
2022/04/11 10:26:25;;;;;;;13.57;3.37;;;21.00;99.90;;;;;;4986916;28;20244;-67
2022/04/11 10:28:52;;;;;;;12.77;3.10;;;20.90;99.90;;;;;;4990214;28;20635;-66
2022/04/11 10:31:20;;;;;;;16.90;3.90;;;21.10;99.90;;;;;;4988678;28;20201;-66
2022/04/11 10:33:50;;;;;;;17.30;3.63;;;20.90;99.90;;;;;;4991895;28;20197;-65
2022/04/11 10:36:37;;;;;;;15.83;3.43;;;21.00;99.90;;;;;;4986598;28;20201;-67
2022/04/11 10:39:15;;;;;;;19.93;3.87;;;20.90;99.90;;;;;;4988808;28;20193;-66
2022/04/11 10:42:09;;;;;;;14.20;4.00;;;20.80;99.90;;;;;;4989478;28;20189;-66
2022/04/11 10:44:50;;;;;;;14.13;3.53;;;20.70;99.90;;;;;;4983529;28;20545;-67
2022/04/11 10:47:21;;;;;;;16.77;3.90;;;20.80;99.90;;;;;;4993101;28;20196;-66
2022/04/11 10:49:50;;;;;;;13.87;3.77;;;20.60;99.90;;;;;;4985854;28;20209;-65
2022/04/11 10:52:34;;;;;;;17.10;3.90;;;20.50;99.90;;;;;;5000088;28;20202;-66
2022/04/11 10:55:16;;;;;;;20.20;4.03;;;20.50;99.90;;;;;;4999372;28;20190;-65
2022/04/11 10:57:46;;;;;;;16.50;3.90;;;20.50;99.90;;;;;;4988020;28;20184;-67
2022/04/11 11:00:24;;;;;;;22.73;4.53;;;20.60;99.90;;;;;;4991187;28;20292;-66
2022/04/11 11:05:36;;;;;;;19.17;4.37;;;20.00;99.90;;;;;;4992585;28;20210;-67
2022/04/11 11:08:09;;;;;;;18.30;4.17;;;19.80;99.90;;;;;;4988435;28;20193;-67
2022/04/11 11:10:56;;;;;;;24.30;4.77;;;19.70;99.90;;;;;;4986251;28;20217;-66
2022/04/11 11:13:41;;;;;;;22.07;4.73;;;19.50;99.90;;;;;;4983454;28;20209;-67
2022/04/11 11:16:07;;;;;;;22.93;4.63;;;19.30;99.90;;;;;;4981818;28;20869;-66
2022/04/11 11:18:50;;;;;;;16.87;4.17;;;19.50;99.90;;;;;;4982355;28;20201;-66
2022/04/11 11:21:37;;;;;;;23.37;4.37;;;19.30;99.90;;;;;;4983013;28;20319;-66
2022/04/11 11:26:52;;;;;;;21.67;4.37;;;18.90;99.90;;;;;;4983821;28;20185;-67
2022/04/11 11:29:43;;;;;;;17.33;3.87;;;19.00;99.90;;;;;;4986401;28;20272;-66
2022/04/11 11:32:12;;;;;;;20.87;3.70;;;19.30;99.90;;;;;;4986999;28;20196;-66
2022/04/11 11:34:43;;;;;;;22.07;4.93;;;19.20;99.90;;;;;;4990797;28;20182;-66
2022/04/11 11:37:12;;;;;;;22.83;4.53;;;19.00;99.90;;;;;;4972206;28;20747;-67
2022/04/11 11:39:45;;;;;;;16.60;4.37;;;19.20;99.90;;;;;;4984186;28;20232;-66
2022/04/11 11:42:15;;;;;;;22.27;4.83;;;19.20;99.90;;;;;;4981389;28;20673;-66
2022/04/11 11:44:51;;;;;;;18.10;4.90;;;19.20;99.90;;;;;;4971450;28;20896;-66
2022/04/11 11:47:27;;;;;;;30.37;5.70;;;19.00;99.90;;;;;;4970788;28;20929;-66
2022/04/11 11:50:03;;;;;;;26.57;4.70;;;18.70;99.90;;;;;;4970019;28;20225;-66
2022/04/11 11:52:29;;;;;;;20.17;4.90;;;18.70;99.90;;;;;;4981210;28;20190;-66
2022/04/11 11:54:55;;;;;;;23.67;4.63;;;18.70;99.90;;;;;;4987861;28;20725;-66
2022/04/11 11:57:28;;;;;;;14.53;3.87;;;18.60;99.90;;;;;;4988791;28;20186;-66
2022/04/11 12:00:01;;;;;;;20.33;4.83;;;18.70;99.90;;;;;;4981852;28;20216;-65
2022/04/11 12:05:21;;;;;;;15.70;4.00;;;18.70;99.90;;;;;;4969846;28;20190;-66
2022/04/11 12:08:03;;;;;;;19.33;4.33;;;18.50;99.90;;;;;;4980446;28;20248;-66
2022/04/11 12:10:30;;;;;;;20.60;4.47;;;18.20;99.90;;;;;;4963507;28;20285;-65
2022/04/11 12:12:57;;;;;;;24.20;4.40;;;18.00;99.90;;;;;;4971770;28;20190;-66
2022/04/11 12:15:23;;;;;;;22.97;4.87;;;18.00;99.90;;;;;;4989185;28;20206;-66
2022/04/11 12:18:01;;;;;;;23.57;4.30;;;18.00;99.90;;;;;;4988230;28;20205;-66
2022/04/11 12:20:31;;;;;;;21.43;4.93;;;18.00;99.90;;;;;;4987150;28;20638;-65
2022/04/11 12:23:10;;;;;;;25.13;4.93;;;17.90;99.90;;;;;;4985910;28;20201;-66
2022/04/11 12:25:41;;;;;;;19.33;4.80;;;17.80;99.90;;;;;;5004997;28;20197;-66
2022/04/11 12:28:26;;;;;;;19.33;4.67;;;17.70;99.90;;;;;;5004806;28;20200;-66
2022/04/11 12:31:17;;;;;;;18.53;3.93;;;17.70;99.90;;;;;;4988774;28;20658;-65
2022/04/11 12:33:49;;;;;;;17.73;4.47;;;17.70;99.90;;;;;;4990534;28;20256;-66
2022/04/11 12:36:28;;;;;;;20.23;4.33;;;17.60;99.90;;;;;;4989735;28;20197;-67
2022/04/11 12:38:59;;;;;;;31.93;4.90;;;17.60;99.90;;;;;;4984139;28;20208;-66
2022/04/11 12:41:43;;;;;;;28.20;4.27;;;17.60;99.90;;;;;;4975870;28;20755;-66
2022/04/11 12:44:34;;;;;;;18.47;4.47;;;17.60;99.90;;;;;;4963398;28;20196;-66
2022/04/11 12:47:09;;;;;;;19.73;4.53;;;17.60;99.90;;;;;;4990646;28;20209;-66
2022/04/11 12:49:46;;;;;;;26.40;5.30;;;17.50;99.90;;;;;;4990491;28;20205;-66
2022/04/11 12:52:20;;;;;;;24.63;5.20;;;17.40;99.90;;;;;;4961189;28;20196;-65
2022/04/11 12:54:59;;;;;;;23.97;5.40;;;17.20;99.90;;;;;;4970790;28;20663;-65
2022/04/11 12:57:32;;;;;;;23.67;4.30;;;17.00;99.90;;;;;;4970668;28;20197;-66
2022/04/11 13:00:16;;;;;;;19.80;4.43;;;17.00;99.90;;;;;;4963382;28;20193;-65